Time;durP1;ratioP1;P1;durP2;ratioP2;P2;SDS_P1;SDS_P2;PMS_P1;PMS_P2;Temp;Humidity;BMP_temperature;BMP_pressure;BME280_temperature;BME280_humidity;BME280_pressure;Samples;Min_cycle;Max_cycle;Signal;HPM_P1;HPM_P2
2022/03/26 00:00:12;;;;;;;20.73;15.17;;;;;;;11.14;33.83;95372.44;5050097;28;20474;-80
2022/03/26 00:02:37;;;;;;;21.00;14.73;;;;;;;11.46;33.52;95385.38;5043099;28;20451;-81
2022/03/26 00:05:03;;;;;;;20.70;14.03;;;;;;;11.51;33.75;95378.63;5033739;28;20441;-80
2022/03/26 00:07:29;;;;;;;20.20;13.63;;;;;;;11.45;33.69;95384.56;5057172;28;20178;-80
2022/03/26 00:09:54;;;;;;;21.00;13.60;;;;;;;11.51;33.64;95373.38;5045062;28;20414;-81
2022/03/26 00:12:20;;;;;;;20.63;13.90;;;;;;;11.56;33.59;95382.50;5045782;28;20194;-80
2022/03/26 00:14:46;;;;;;;22.83;13.77;;;;;;;11.37;33.89;95379.41;5060898;28;20209;-80
2022/03/26 00:17:12;;;;;;;22.17;14.67;;;;;;;11.36;33.71;95382.22;5043809;28;20178;-80
2022/03/26 00:19:40;;;;;;;21.80;14.63;;;;;;;11.33;34.44;95381.59;5054753;28;20202;-80
2022/03/26 00:22:06;;;;;;;21.00;15.97;;;;;;;11.50;33.96;95395.31;5044375;28;20183;-80
2022/03/26 00:24:31;;;;;;;21.97;15.50;;;;;;;11.42;33.86;95389.34;5050099;28;20544;-81
2022/03/26 00:26:57;;;;;;;19.60;13.87;;;;;;;11.69;33.09;95387.91;5029565;28;20223;-80
2022/03/26 00:29:23;;;;;;;16.93;14.90;;;;;;;11.65;33.31;95387.44;5037991;28;20640;-80
2022/03/26 00:31:48;;;;;;;22.23;15.43;;;;;;;11.33;34.31;95383.41;5028400;28;20652;-80
2022/03/26 00:34:14;;;;;;;24.60;14.60;;;;;;;11.38;33.74;95382.84;5032576;28;20417;-80
2022/03/26 00:36:40;;;;;;;19.00;13.70;;;;;;;11.43;34.18;95386.53;5028465;28;20170;-80
2022/03/26 00:39:06;;;;;;;14.27;12.77;;;;;;;11.38;34.05;95381.03;5060854;28;20595;-80
2022/03/26 00:41:32;;;;;;;14.97;12.77;;;;;;;10.90;34.71;95386.56;5034152;28;20235;-81
2022/03/26 00:43:57;;;;;;;16.63;11.30;;;;;;;10.96;35.09;95384.25;5045609;28;20433;-81
2022/03/26 00:46:23;;;;;;;15.97;10.97;;;;;;;11.27;34.48;95397.22;5057656;28;20433;-81
2022/03/26 00:48:49;;;;;;;13.77;11.47;;;;;;;11.17;34.45;95391.41;5038387;28;20218;-81
2022/03/26 00:51:16;;;;;;;14.50;9.70;;;;;;;11.29;34.60;95390.81;5066374;28;20418;-81
2022/03/26 00:53:43;;;;;;;14.20;10.10;;;;;;;10.96;34.85;95400.78;5039592;28;20549;-80
2022/03/26 00:56:08;;;;;;;16.50;9.77;;;;;;;11.07;34.43;95386.44;5053114;28;20421;-81
2022/03/26 00:58:34;;;;;;;11.10;8.13;;;;;;;11.21;33.95;95387.44;5032553;28;21020;-81
2022/03/26 01:01:00;;;;;;;15.13;9.50;;;;;;;11.01;34.54;95397.63;5034717;28;20207;-80
2022/03/26 01:03:25;;;;;;;14.87;8.67;;;;;;;10.91;34.24;95396.06;5047286;28;20471;-80
2022/03/26 01:05:52;;;;;;;13.53;8.83;;;;;;;11.14;34.47;95398.63;5058114;28;20182;-80
2022/03/26 01:08:17;;;;;;;12.27;9.40;;;;;;;10.59;35.10;95397.16;5038939;28;20175;-81
2022/03/26 01:10:49;;;;;;;16.20;9.33;;;;;;;10.91;34.80;95403.13;5036289;28;21038;-81
2022/03/26 01:13:14;;;;;;;10.63;9.53;;;;;;;11.14;34.56;95409.13;5046516;28;20550;-81
2022/03/26 01:15:40;;;;;;;14.10;9.77;;;;;;;11.13;34.11;95412.75;5031594;28;20426;-80
2022/03/26 01:18:06;;;;;;;17.17;9.43;;;;;;;10.73;35.13;95408.66;5064369;28;20254;-80
2022/03/26 01:20:32;;;;;;;11.43;8.80;;;;;;;10.72;34.89;95410.47;5031523;28;20465;-80
2022/03/26 01:22:57;;;;;;;18.27;10.40;;;;;;;10.99;35.28;95410.09;5049238;28;20183;-80
2022/03/26 01:25:24;;;;;;;13.00;11.50;;;;;;;10.84;35.55;95412.69;5031418;28;20241;-80
2022/03/26 01:27:49;;;;;;;13.40;10.70;;;;;;;10.87;35.94;95418.38;5035895;28;20199;-81
2022/03/26 01:30:15;;;;;;;13.70;10.17;;;;;;;10.61;36.02;95416.13;5054899;28;20769;-81
2022/03/26 01:32:43;;;;;;;16.97;10.30;;;;;;;10.80;35.50;95421.88;5050558;28;20352;-81
2022/03/26 01:35:09;;;;;;;16.60;10.63;;;;;;;10.90;35.43;95422.44;5053312;28;20194;-81
2022/03/26 01:37:35;;;;;;;12.57;9.40;;;;;;;10.63;36.61;95427.22;5063573;28;20479;-81
2022/03/26 01:40:00;;;;;;;16.67;10.10;;;;;;;10.71;35.90;95423.72;5058732;28;20530;-80
2022/03/26 01:42:26;;;;;;;12.90;9.53;;;;;;;10.94;35.70;95423.69;5025350;28;20180;-81
2022/03/26 01:44:51;;;;;;;11.60;9.97;;;;;;;11.19;34.73;95426.09;5045195;28;20194;-81
2022/03/26 01:47:18;;;;;;;16.23;9.27;;;;;;;10.71;36.03;95427.16;5057704;28;20218;-80
2022/03/26 01:49:44;;;;;;;9.93;8.97;;;;;;;10.43;36.05;95424.25;5059370;28;20171;-81
2022/03/26 01:52:10;;;;;;;17.33;11.23;;;;;;;10.48;36.58;95431.59;5032978;28;20472;-80
2022/03/26 01:54:38;;;;;;;13.97;11.67;;;;;;;10.50;35.96;95424.38;5054358;28;20202;-81
2022/03/26 01:57:04;;;;;;;23.40;12.70;;;;;;;10.65;36.70;95435.72;5050754;28;20424;-80
2022/03/26 01:59:30;;;;;;;15.27;12.30;;;;;;;10.51;36.14;95424.22;5045233;28;20530;-80
2022/03/26 02:01:56;;;;;;;15.43;12.47;;;;;;;10.52;36.49;95425.00;5034545;28;20936;-81
2022/03/26 02:04:22;;;;;;;15.77;11.43;;;;;;;10.48;36.36;95434.22;5064219;28;20448;-81
2022/03/26 02:06:48;;;;;;;18.47;11.40;;;;;;;10.49;36.84;95430.59;5055507;28;20421;-80
2022/03/26 02:09:14;;;;;;;18.27;12.77;;;;;;;10.46;36.24;95429.13;5050326;28;20183;-80
2022/03/26 02:11:42;;;;;;;16.20;12.47;;;;;;;10.64;36.56;95431.50;5060059;28;20501;-81
2022/03/26 02:14:10;;;;;;;21.20;10.60;;;;;;;10.32;37.11;95435.94;5060147;28;20473;-81
2022/03/26 02:16:38;;;;;;;15.57;11.13;;;;;;;10.24;37.43;95428.09;5064930;28;20420;-81
2022/03/26 02:19:06;;;;;;;16.20;12.30;;;;;;;10.88;36.30;95440.13;5049553;28;20441;-81
2022/03/26 02:21:34;;;;;;;16.17;12.20;;;;;;;10.57;36.55;95438.41;5037056;28;20424;-81
2022/03/26 02:24:00;;;;;;;14.27;10.70;;;;;;;10.46;36.81;95437.00;5051230;28;20451;-80
2022/03/26 02:26:26;;;;;;;16.87;11.73;;;;;;;9.91;38.06;95441.34;5054646;28;20444;-81
2022/03/26 02:28:52;;;;;;;14.60;10.80;;;;;;;9.62;38.33;95438.50;5034117;28;20508;-81
2022/03/26 02:31:19;;;;;;;13.97;11.83;;;;;;;9.91;38.44;95436.13;5054790;28;20917;-80
2022/03/26 02:33:45;;;;;;;16.23;11.57;;;;;;;10.07;38.47;95435.25;5064544;28;20427;-80
2022/03/26 02:36:11;;;;;;;11.23;10.00;;;;;;;10.14;37.72;95440.59;5042518;28;20417;-81
2022/03/26 02:38:37;;;;;;;12.90;10.17;;;;;;;10.04;38.11;95437.38;5054811;28;20183;-80
2022/03/26 02:41:03;;;;;;;13.27;9.97;;;;;;;10.20;37.83;95445.13;5060350;28;20460;-81
2022/03/26 02:43:29;;;;;;;14.03;11.70;;;;;;;10.07;38.48;95444.88;5058734;28;20588;-80
2022/03/26 02:45:55;;;;;;;15.20;10.60;;;;;;;10.14;37.74;95440.59;5054567;28;20430;-82
2022/03/26 02:48:20;;;;;;;11.23;9.50;;;;;;;9.86;38.21;95446.25;5060550;28;20171;-80
2022/03/26 02:50:46;;;;;;;11.53;10.30;;;;;;;9.63;38.45;95448.78;5050006;28;20210;-81
2022/03/26 02:53:12;;;;;;;12.43;10.07;;;;;;;9.75;38.19;95446.63;5059591;28;20253;-80
2022/03/26 02:55:39;;;;;;;13.33;10.63;;;;;;;9.83;38.02;95453.66;5058541;28;20190;-80
2022/03/26 02:58:07;;;;;;;17.10;10.73;;;;;;;9.61;38.54;95448.16;5060831;28;20433;-80
2022/03/26 03:00:34;;;;;;;12.50;9.97;;;;;;;9.55;39.25;95449.63;5056538;28;20503;-80
2022/03/26 03:02:59;;;;;;;14.23;9.80;;;;;;;9.59;39.17;95450.13;5050508;28;20425;-81
2022/03/26 03:05:25;;;;;;;19.00;11.33;;;;;;;9.47;38.91;95451.47;5059315;28;20457;-81
2022/03/26 03:07:53;;;;;;;19.50;10.33;;;;;;;9.29;39.33;95451.66;5055187;28;20189;-81
2022/03/26 03:10:19;;;;;;;14.93;10.63;;;;;;;9.18;39.00;95452.81;5031031;28;20183;-80
2022/03/26 03:12:46;;;;;;;15.03;9.60;;;;;;;9.40;38.60;95451.31;5060684;28;20840;-81
2022/03/26 03:15:12;;;;;;;12.73;11.27;;;;;;;9.44;39.33;95457.81;5052182;28;20436;-81
2022/03/26 03:17:41;;;;;;;17.47;11.80;;;;;;;9.48;39.63;95459.13;5048188;28;20441;-81
2022/03/26 03:20:09;;;;;;;12.20;10.60;;;;;;;9.36;39.17;95456.03;5048258;28;20539;-81
2022/03/26 03:22:35;;;;;;;20.00;10.80;;;;;;;9.56;38.74;95461.72;5058889;28;20412;-81
2022/03/26 03:25:00;;;;;;;17.27;11.63;;;;;;;9.39;39.06;95460.16;5054558;28;20469;-80
2022/03/26 03:27:29;;;;;;;12.60;10.00;;;;;;;9.55;38.78;95460.09;5029090;28;20423;-79
2022/03/26 03:29:54;;;;;;;16.07;10.03;;;;;;;9.90;37.56;95462.41;5057370;28;20181;-79
2022/03/26 03:32:20;;;;;;;12.50;10.40;;;;;;;9.79;37.86;95458.41;5058686;28;20489;-79
2022/03/26 03:34:45;;;;;;;17.27;10.80;;;;;;;9.65;38.57;95456.47;5043285;28;20187;-81
2022/03/26 03:37:11;;;;;;;16.23;10.40;;;;;;;9.49;39.64;95458.16;5057662;28;20190;-80
2022/03/26 03:39:36;;;;;;;22.57;12.03;;;;;;;9.49;39.29;95462.56;5035785;28;20704;-80
2022/03/26 03:42:03;;;;;;;14.93;10.03;;;;;;;9.61;39.26;95457.78;5036753;28;20179;-80
2022/03/26 03:44:29;;;;;;;17.97;11.37;;;;;;;9.52;39.17;95462.22;5054429;28;20187;-80
2022/03/26 03:46:55;;;;;;;18.10;11.57;;;;;;;9.61;38.83;95458.59;5061019;28;20458;-80
2022/03/26 03:49:21;;;;;;;13.20;11.00;;;;;;;9.45;39.17;95458.66;5058203;28;20911;-81
2022/03/26 03:51:46;;;;;;;15.80;11.57;;;;;;;9.21;39.69;95464.75;5060879;28;20544;-81
2022/03/26 03:54:12;;;;;;;15.80;11.63;;;;;;;9.17;39.92;95464.25;5039555;28;20191;-80
2022/03/26 03:56:38;;;;;;;16.67;11.20;;;;;;;9.14;40.43;95464.56;5060661;28;20179;-81
2022/03/26 03:59:04;;;;;;;14.93;11.60;;;;;;;9.32;40.21;95467.00;5047107;28;20231;-80
2022/03/26 04:01:29;;;;;;;18.87;11.37;;;;;;;9.35;39.29;95469.28;5057366;28;20174;-80
2022/03/26 04:03:55;;;;;;;14.00;11.37;;;;;;;9.23;39.54;95475.84;5067170;28;20209;-81
2022/03/26 04:06:21;;;;;;;15.50;11.33;;;;;;;8.96;40.53;95472.59;5052823;28;20176;-80
2022/03/26 04:08:46;;;;;;;15.47;11.93;;;;;;;9.17;40.32;95472.09;5067173;28;20177;-80
2022/03/26 04:11:11;;;;;;;15.50;11.83;;;;;;;9.04;39.78;95475.19;5063964;28;20183;-80
2022/03/26 04:13:37;;;;;;;16.07;10.97;;;;;;;9.01;39.80;95482.53;5035245;28;20213;-80
2022/03/26 04:16:03;;;;;;;12.70;11.50;;;;;;;9.33;38.75;95479.91;5064309;28;20182;-81
2022/03/26 04:18:28;;;;;;;16.63;11.03;;;;;;;9.07;39.97;95479.25;5048073;28;20239;-78
2022/03/26 04:20:54;;;;;;;14.53;11.27;;;;;;;9.40;39.41;95485.28;5039924;28;20214;-80
2022/03/26 04:23:20;;;;;;;14.67;12.43;;;;;;;9.00;40.49;95489.56;5055237;28;20183;-81
2022/03/26 04:25:46;;;;;;;15.77;11.90;;;;;;;8.71;40.89;95487.44;5063985;28;20515;-81
2022/03/26 04:28:13;;;;;;;16.30;12.10;;;;;;;8.75;40.65;95489.53;5035436;28;20424;-81
2022/03/26 04:30:38;;;;;;;14.23;11.87;;;;;;;8.89;40.62;95495.09;5047107;28;20456;-81
2022/03/26 04:33:03;;;;;;;16.73;11.80;;;;;;;8.83;40.09;95495.75;5037728;28;20489;-80
2022/03/26 04:35:29;;;;;;;18.67;12.60;;;;;;;9.03;40.14;95497.06;5042477;28;20182;-81
2022/03/26 04:37:56;;;;;;;17.63;12.80;;;;;;;8.79;40.89;95500.47;5065677;28;20174;-81
2022/03/26 04:40:23;;;;;;;15.03;11.33;;;;;;;8.75;40.63;95509.59;5064634;28;20190;-81
2022/03/26 04:42:49;;;;;;;15.70;13.23;;;;;;;8.68;40.91;95506.81;5058490;28;20453;-81
2022/03/26 04:45:15;;;;;;;15.70;12.60;;;;;;;8.68;41.11;95514.63;5030701;28;20442;-81
2022/03/26 04:47:41;;;;;;;21.37;14.60;;;;;;;8.88;40.13;95511.72;5045775;28;20167;-80
2022/03/26 04:50:07;;;;;;;17.10;13.60;;;;;;;8.94;39.79;95508.47;5064772;28;20429;-80
2022/03/26 04:52:33;;;;;;;21.40;14.07;;;;;;;9.03;40.18;95517.13;5063678;28;20226;-80
2022/03/26 04:54:58;;;;;;;15.90;13.70;;;;;;;9.13;39.78;95521.19;5065272;28;20471;-80
2022/03/26 04:57:24;;;;;;;14.50;12.87;;;;;;;9.06;39.19;95512.38;5037394;28;20210;-80
2022/03/26 04:59:49;;;;;;;17.70;14.17;;;;;;;9.13;38.25;95521.19;5058601;28;20469;-80
2022/03/26 05:02:15;;;;;;;19.10;13.53;;;;;;;9.22;38.36;95519.41;5056053;28;20256;-80
2022/03/26 05:04:40;;;;;;;17.63;13.50;;;;;;;9.19;38.37;95517.94;5062514;28;20184;-80
2022/03/26 05:07:55;;;;;;;18.30;14.53;;;;;;;9.29;38.19;95516.94;5056740;28;20937;-80
2022/03/26 05:09:52;;;;;;;18.20;14.80;;;;;;;9.32;38.42;95527.09;5037955;28;20203;-80
2022/03/26 05:12:18;;;;;;;20.77;15.40;;;;;;;9.44;37.65;95524.94;5022373;28;20410;-80
2022/03/26 05:14:44;;;;;;;22.13;14.87;;;;;;;9.46;38.12;95520.38;5046237;28;20266;-80
2022/03/26 05:17:10;;;;;;;25.63;17.03;;;;;;;9.09;38.12;95521.72;5063904;28;20409;-81
2022/03/26 05:19:35;;;;;;;23.20;17.20;;;;;;;9.28;38.07;95531.00;5037998;28;20489;-81
2022/03/26 05:22:01;;;;;;;21.13;17.10;;;;;;;9.34;37.66;95525.94;5027686;28;20513;-81
2022/03/26 05:24:26;;;;;;;23.10;16.50;;;;;;;9.47;37.89;95530.66;5065751;28;20174;-82
2022/03/26 05:26:52;;;;;;;19.53;16.00;;;;;;;9.16;37.97;95522.66;5066092;28;20170;-81
2022/03/26 05:29:17;;;;;;;21.90;16.97;;;;;;;9.25;37.73;95532.13;5058101;28;20226;-80
2022/03/26 05:31:43;;;;;;;25.60;16.73;;;;;;;8.76;38.47;95529.50;5045919;28;20242;-80
2022/03/26 05:34:08;;;;;;;18.53;15.87;;;;;;;9.05;38.79;95536.88;5052775;28;20241;-80
2022/03/26 05:36:34;;;;;;;18.80;15.60;;;;;;;8.98;38.94;95533.28;5059681;28;20179;-79
2022/03/26 05:38:59;;;;;;;24.50;16.77;;;;;;;8.91;38.44;95535.72;5066020;28;20182;-79
2022/03/26 05:41:26;;;;;;;19.43;15.87;;;;;;;9.34;37.54;95536.38;5047225;28;20207;-80
2022/03/26 05:43:51;;;;;;;23.90;14.60;;;;;;;9.65;37.46;95533.06;5051141;28;20243;-80
2022/03/26 05:46:17;;;;;;;27.10;16.73;;;;;;;9.81;37.62;95534.84;5064214;28;20931;-81
2022/03/26 05:48:42;;;;;;;20.50;17.47;;;;;;;10.00;36.76;95541.50;5052444;28;20175;-80
2022/03/26 05:51:08;;;;;;;23.77;17.60;;;;;;;10.11;36.17;95540.28;5041270;28;20176;-80
2022/03/26 05:53:34;;;;;;;23.60;17.57;;;;;;;10.47;35.73;95539.84;5056381;28;20226;-80
2022/03/26 05:56:00;;;;;;;25.40;17.27;;;;;;;10.67;35.79;95543.69;5051964;28;20198;-80
2022/03/26 05:58:26;;;;;;;30.67;17.90;;;;;;;10.80;35.49;95543.13;5040629;28;20940;-80
2022/03/26 06:00:51;;;;;;;22.10;15.73;;;;;;;10.71;35.42;95538.91;5048304;28;20519;-80
2022/03/26 06:03:18;;;;;;;37.17;21.93;;;;;;;10.94;34.94;95544.16;5062722;28;20194;-80
2022/03/26 06:05:47;;;;;;;25.60;17.40;;;;;;;11.04;34.44;95539.53;5060354;28;20174;-81
2022/03/26 06:08:13;;;;;;;24.60;18.70;;;;;;;10.77;35.50;95547.88;5069657;28;20408;-81
2022/03/26 06:10:39;;;;;;;26.40;18.07;;;;;;;11.04;34.56;95543.94;5043973;28;20452;-81
2022/03/26 06:13:05;;;;;;;29.47;19.23;;;;;;;11.22;34.10;95548.91;5065835;28;20417;-81
2022/03/26 06:15:34;;;;;;;25.53;17.67;;;;;;;11.42;34.05;95547.44;5057328;28;20175;-81
2022/03/26 06:17:59;;;;;;;20.57;17.93;;;;;;;11.47;33.65;95552.13;5052610;28;20184;-81
2022/03/26 06:20:26;;;;;;;26.37;19.17;;;;;;;11.64;33.81;95553.59;5061941;28;20473;-82
2022/03/26 06:22:52;;;;;;;25.67;19.33;;;;;;;11.64;33.60;95550.97;5050659;28;20438;-81
2022/03/26 06:25:18;;;;;;;26.70;20.70;;;;;;;11.74;33.49;95550.72;5052891;28;20476;-81
2022/03/26 06:27:46;;;;;;;28.63;19.77;;;;;;;12.02;32.85;95552.78;5057702;28;20178;-81
2022/03/26 06:30:12;;;;;;;22.50;18.30;;;;;;;11.92;33.06;95560.91;5049520;28;20183;-81
2022/03/26 06:32:37;;;;;;;22.57;17.00;;;;;;;12.14;32.81;95556.59;5055619;28;20432;-81
2022/03/26 06:35:05;;;;;;;21.53;17.80;;;;;;;11.87;33.24;95558.78;5063669;28;20536;-81
2022/03/26 06:37:30;;;;;;;20.83;17.13;;;;;;;11.86;33.31;95567.66;5063644;28;20179;-81
2022/03/26 06:39:56;;;;;;;23.50;18.00;;;;;;;12.23;33.19;95560.72;5060144;28;20472;-81
2022/03/26 06:42:22;;;;;;;26.07;18.77;;;;;;;12.19;32.75;95566.53;5067265;28;20182;-79
2022/03/26 06:44:48;;;;;;;23.43;18.27;;;;;;;12.19;32.76;95569.97;5054538;28;20566;-80
2022/03/26 06:47:14;;;;;;;18.73;16.40;;;;;;;12.36;32.06;95564.53;5062257;28;20457;-80
2022/03/26 06:49:41;;;;;;;34.30;17.47;;;;;;;12.32;32.20;95563.28;5061864;28;20615;-80
2022/03/26 06:52:08;;;;;;;26.37;18.23;;;;;;;12.07;32.13;95561.75;5060299;28;20801;-80
2022/03/26 06:54:33;;;;;;;23.73;16.73;;;;;;;12.40;31.83;95565.81;5055673;28;20488;-78
2022/03/26 06:56:59;;;;;;;22.03;15.93;;;;;;;11.98;32.60;95577.75;5052604;28;20467;-80
2022/03/26 06:59:25;;;;;;;20.80;16.30;;;;;;;12.06;32.22;95572.41;5057624;28;20575;-80
2022/03/26 07:01:51;;;;;;;17.87;15.00;;;;;;;11.54;32.69;95574.03;5051418;28;20409;-80
2022/03/26 07:04:17;;;;;;;22.73;16.43;;;;;;;12.49;31.44;95576.00;5066609;28;20217;-80
2022/03/26 07:06:43;;;;;;;24.87;18.00;;;;;;;13.03;31.06;95569.56;5057126;28;20186;-80
2022/03/26 07:09:09;;;;;;;27.40;20.20;;;;;;;13.36;30.44;95581.44;5049441;28;20444;-80
2022/03/26 07:11:34;;;;;;;21.30;16.60;;;;;;;13.20;31.14;95582.47;5061668;28;20413;-80
2022/03/26 07:14:00;;;;;;;20.63;16.57;;;;;;;13.21;30.56;95584.91;5061224;28;20187;-80
2022/03/26 07:16:26;;;;;;;25.90;18.57;;;;;;;12.40;31.70;95586.81;5063108;28;20195;-80
2022/03/26 07:18:52;;;;;;;25.20;17.57;;;;;;;12.81;31.60;95599.44;5048094;28;20250;-81
2022/03/26 07:21:17;;;;;;;22.27;18.13;;;;;;;12.80;31.14;95592.53;5059512;28;20583;-80
2022/03/26 07:23:43;;;;;;;21.20;17.23;;;;;;;12.01;32.64;95596.56;5049723;28;20171;-80
2022/03/26 07:26:09;;;;;;;29.10;18.03;;;;;;;13.04;31.01;95584.31;5058365;28;20178;-80
2022/03/26 07:28:34;;;;;;;31.70;17.17;;;;;;;13.41;29.80;95587.78;5073932;28;20193;-79
2022/03/26 07:31:00;;;;;;;18.13;15.10;;;;;;;13.19;30.50;95586.91;5060578;28;20225;-80
2022/03/26 07:33:27;;;;;;;24.57;15.90;;;;;;;13.48;29.34;95591.25;5052529;28;20182;-80
2022/03/26 07:35:53;;;;;;;20.83;16.77;;;;;;;12.38;31.52;95591.41;5050676;28;20201;-80
2022/03/26 07:38:20;;;;;;;22.53;15.43;;;;;;;13.21;30.42;95595.41;5061545;28;20417;-79
2022/03/26 07:40:47;;;;;;;22.90;17.70;;;;;;;13.59;30.14;95594.41;5055489;28;20696;-80
2022/03/26 07:43:13;;;;;;;22.83;17.03;;;;;;;14.06;29.65;95593.75;5053883;28;20476;-80
2022/03/26 07:45:38;;;;;;;19.90;17.50;;;;;;;14.25;29.26;95592.25;5046955;28;20504;-80
2022/03/26 07:48:05;;;;;;;21.13;16.13;;;;;;;14.21;29.46;95595.47;5049812;28;20714;-80
2022/03/26 07:50:31;;;;;;;24.53;17.90;;;;;;;14.47;29.53;95591.34;5067579;28;20174;-79
2022/03/26 07:52:57;;;;;;;24.63;17.67;;;;;;;14.70;28.84;95588.44;5055196;28;20477;-80
2022/03/26 07:55:22;;;;;;;19.90;15.60;;;;;;;14.84;28.28;95590.94;5050807;28;20425;-80
2022/03/26 07:57:48;;;;;;;31.93;18.60;;;;;;;14.50;28.82;95586.50;5058748;28;20677;-80
2022/03/26 08:00:14;;;;;;;23.13;17.77;;;;;;;14.33;29.19;95587.84;5050573;28;20282;-80
2022/03/26 08:02:40;;;;;;;21.93;16.77;;;;;;;14.63;28.26;95586.59;5061918;28;20189;-79
2022/03/26 08:05:06;;;;;;;27.90;18.00;;;;;;;15.10;28.43;95588.56;5056178;28;20488;-80
2022/03/26 08:07:32;;;;;;;22.40;16.63;;;;;;;14.98;28.24;95586.50;5049676;28;20198;-80
2022/03/26 08:09:58;;;;;;;24.40;16.90;;;;;;;15.20;27.53;95583.75;5035874;28;20417;-80
2022/03/26 08:12:24;;;;;;;20.90;17.97;;;;;;;15.89;27.22;95582.59;5054437;28;20430;-80
2022/03/26 08:14:50;;;;;;;23.27;16.53;;;;;;;15.75;26.93;95581.78;5067588;28;20457;-80
2022/03/26 08:17:16;;;;;;;21.70;17.13;;;;;;;15.67;27.12;95586.41;5055850;28;20179;-80
2022/03/26 08:19:42;;;;;;;20.50;16.43;;;;;;;15.60;27.16;95581.16;5051168;28;20471;-80
2022/03/26 08:22:07;;;;;;;31.83;18.83;;;;;;;15.32;27.35;95583.97;5066044;28;20166;-80
2022/03/26 08:24:33;;;;;;;19.67;16.20;;;;;;;15.89;27.05;95579.97;5052643;28;20572;-80
2022/03/26 08:26:59;;;;;;;21.30;16.70;;;;;;;16.25;26.19;95583.16;5036776;28;20188;-80
2022/03/26 08:29:24;;;;;;;22.70;17.67;;;;;;;16.39;25.96;95576.84;5057707;28;20193;-80
2022/03/26 08:31:51;;;;;;;24.73;18.30;;;;;;;16.66;25.73;95580.22;5031602;28;20188;-80
2022/03/26 08:34:18;;;;;;;25.23;19.00;;;;;;;17.75;24.87;95575.72;5059797;28;20364;-80
2022/03/26 08:36:44;;;;;;;29.07;18.90;;;;;;;18.32;23.69;95574.84;5053678;28;20428;-80
2022/03/26 08:39:10;;;;;;;21.67;18.27;;;;;;;18.48;23.69;95568.97;5063278;28;20439;-80
2022/03/26 08:41:35;;;;;;;21.43;18.60;;;;;;;18.71;23.33;95568.31;5041969;28;20461;-81
2022/03/26 08:44:01;;;;;;;23.90;19.10;;;;;;;19.06;23.82;95565.03;5047398;28;20191;-81
2022/03/26 08:46:27;;;;;;;21.93;18.20;;;;;;;18.94;23.39;95566.03;5048843;28;20230;-80
2022/03/26 08:48:56;;;;;;;25.73;19.07;;;;;;;19.48;22.78;95561.59;5041403;28;20663;-81
2022/03/26 08:51:23;;;;;;;20.47;18.17;;;;;;;19.15;23.31;95562.88;5038058;28;20191;-81
2022/03/26 08:53:48;;;;;;;29.90;18.73;;;;;;;19.67;21.86;95549.06;5045512;28;20474;-80
2022/03/26 08:56:14;;;;;;;29.17;19.70;;;;;;;19.05;22.50;95552.03;5050268;28;20433;-80
2022/03/26 08:58:40;;;;;;;25.50;20.17;;;;;;;19.46;22.38;95553.06;5066352;28;20178;-80
2022/03/26 09:01:07;;;;;;;26.03;18.63;;;;;;;18.50;22.84;95550.22;5053871;28;20201;-79
2022/03/26 09:03:37;;;;;;;22.90;17.40;;;;;;;18.84;22.83;95558.63;5057364;28;20965;-79
2022/03/26 09:06:07;;;;;;;22.50;17.47;;;;;;;18.99;22.31;95550.25;5046641;28;20460;-81
2022/03/26 09:08:34;;;;;;;18.70;16.90;;;;;;;17.86;23.52;95539.03;5033367;28;20437;-78
2022/03/26 09:11:00;;;;;;;23.20;18.23;;;;;;;19.56;21.95;95547.19;5060879;28;20430;-79
2022/03/26 09:13:25;;;;;;;22.37;17.80;;;;;;;18.05;23.64;95543.31;5046509;28;20432;-79
2022/03/26 09:15:51;;;;;;;24.53;19.17;;;;;;;18.25;23.30;95542.31;5057440;28;20421;-79
2022/03/26 09:18:17;;;;;;;22.00;16.70;;;;;;;19.51;21.61;95530.09;5059397;28;20189;-79
2022/03/26 09:20:42;;;;;;;18.27;16.23;;;;;;;19.04;22.15;95534.47;5060388;28;20202;-79
2022/03/26 09:23:08;;;;;;;20.50;15.17;;;;;;;18.31;22.98;95533.50;5050910;28;20191;-80
2022/03/26 09:25:35;;;;;;;19.50;16.10;;;;;;;18.92;22.66;95524.63;5059240;28;20229;-79
2022/03/26 09:28:01;;;;;;;18.00;14.60;;;;;;;18.58;23.17;95523.41;5035446;28;20417;-79
2022/03/26 09:30:26;;;;;;;21.80;15.03;;;;;;;18.91;22.39;95530.97;5065746;28;20413;-79
2022/03/26 09:32:52;;;;;;;19.40;14.70;;;;;;;19.72;22.01;95521.81;5045160;28;20433;-79
2022/03/26 09:35:18;;;;;;;20.20;14.40;;;;;;;19.54;21.83;95518.22;5046755;28;20186;-79
2022/03/26 09:37:44;;;;;;;18.00;13.80;;;;;;;19.41;22.35;95516.56;5059099;28;20206;-80
2022/03/26 09:40:11;;;;;;;17.10;13.73;;;;;;;19.38;22.09;95514.38;5061887;28;20457;-80
2022/03/26 09:42:38;;;;;;;15.47;13.90;;;;;;;19.78;22.21;95503.13;5040605;28;20487;-80
2022/03/26 09:45:06;;;;;;;18.40;13.43;;;;;;;18.97;23.37;95507.22;5038418;28;20419;-80
2022/03/26 09:47:33;;;;;;;18.70;13.30;;;;;;;18.83;23.68;95502.09;5060934;28;20437;-80
2022/03/26 09:49:59;;;;;;;17.70;12.30;;;;;;;18.86;23.65;95500.84;5053054;28;20540;-79
2022/03/26 09:52:25;;;;;;;16.93;12.83;;;;;;;18.30;24.33;95502.72;5053939;28;21061;-80
2022/03/26 09:54:51;;;;;;;15.10;12.80;;;;;;;18.65;23.92;95497.63;5053773;28;20412;-80
2022/03/26 09:57:16;;;;;;;14.80;10.93;;;;;;;18.94;23.63;95494.41;5054908;28;20445;-80
2022/03/26 09:59:42;;;;;;;14.53;10.97;;;;;;;19.31;22.97;95501.22;5060772;28;20226;-79
2022/03/26 10:02:07;;;;;;;13.17;11.10;;;;;;;20.21;22.37;95490.53;5067892;28;20187;-80
2022/03/26 10:04:41;;;;;;;12.20;10.73;;;;;;;18.52;23.96;95503.88;5060161;28;20175;-80
2022/03/26 10:07:07;;;;;;;12.27;11.07;;;;;;;19.88;22.44;95491.91;5049833;28;20179;-80
2022/03/26 10:09:37;;;;;;;10.93;9.83;;;;;;;19.54;22.47;95489.00;5060157;28;21106;-80
2022/03/26 10:12:06;;;;;;;14.33;10.47;;;;;;;20.36;21.78;95490.84;5048771;28;20436;-80
2022/03/26 10:14:41;;;;;;;11.00;9.87;;;;;;;21.55;20.41;95475.19;5059895;28;20420;-80
2022/03/26 10:17:15;;;;;;;11.07;9.90;;;;;;;21.08;21.12;95478.94;5069757;28;20428;-80
2022/03/26 10:19:42;;;;;;;13.67;9.50;;;;;;;19.26;22.35;95471.88;5070020;28;20447;-81
2022/03/26 10:22:29;;;;;;;12.17;9.70;;;;;;;20.19;21.97;95466.03;5064971;28;20451;-80
2022/03/26 10:25:00;;;;;;;17.83;9.30;;;;;;;20.79;21.14;95465.66;5049788;28;20802;-81
2022/03/26 10:27:26;;;;;;;14.80;10.53;;;;;;;19.73;22.00;95454.38;5045203;28;20444;-80
2022/03/26 10:29:57;;;;;;;11.57;10.27;;;;;;;21.40;21.05;95457.91;5062897;28;20408;-80
2022/03/26 10:32:41;;;;;;;12.17;9.53;;;;;;;21.29;20.63;95457.97;5049708;28;20179;-81
2022/03/26 10:35:15;;;;;;;15.50;10.10;;;;;;;19.86;22.19;95459.47;5039887;28;20915;-80
2022/03/26 10:37:47;;;;;;;10.83;9.53;;;;;;;20.62;21.61;95454.97;5060303;28;20423;-80
2022/03/26 10:40:17;;;;;;;13.27;10.00;;;;;;;20.53;21.53;95450.22;5037393;28;20480;-80
2022/03/26 10:42:42;;;;;;;11.93;9.57;;;;;;;20.89;21.38;95448.22;5064321;28;20536;-81
2022/03/26 10:45:14;;;;;;;11.03;9.67;;;;;;;20.80;21.23;95453.13;5058436;28;20976;-80
2022/03/26 10:47:39;;;;;;;9.90;8.33;;;;;;;21.55;20.57;95446.72;5050545;28;20222;-80
2022/03/26 10:50:05;;;;;;;11.60;7.80;;;;;;;21.24;20.95;95437.38;5048611;28;20469;-79
2022/03/26 10:52:31;;;;;;;10.90;8.27;;;;;;;21.37;20.83;95430.94;5062194;28;20222;-79
2022/03/26 10:54:56;;;;;;;9.50;8.40;;;;;;;21.60;20.45;95435.31;5057425;28;20417;-79
2022/03/26 10:57:24;;;;;;;10.03;7.93;;;;;;;20.94;20.54;95429.69;5066059;28;20205;-79
2022/03/26 10:59:51;;;;;;;8.70;7.40;;;;;;;20.28;20.99;95425.56;5053880;28;20187;-79
2022/03/26 11:02:16;;;;;;;8.33;7.43;;;;;;;20.75;20.72;95411.28;5046140;28;20486;-80
2022/03/26 11:04:42;;;;;;;7.43;6.63;;;;;;;20.26;21.29;95400.22;5047981;28;20409;-80
2022/03/26 11:07:11;;;;;;;9.27;8.27;;;;;;;20.30;21.05;95414.69;5026731;28;20231;-80
2022/03/26 11:09:37;;;;;;;11.60;6.50;;;;;;;19.52;22.63;95408.78;5028717;28;20160;-80
2022/03/26 11:12:04;;;;;;;9.10;6.10;;;;;;;20.16;20.75;95402.69;5028592;28;20766;-80
2022/03/26 11:14:37;;;;;;;6.63;5.97;;;;;;;19.87;21.75;95406.09;5028314;28;20168;-80
2022/03/26 11:17:39;;;;;;;10.40;7.13;;;;;;;20.34;21.42;95405.19;5045302;28;20446;-80